Aviation Digital Data Service (ADDS)

Output produced by TAFs form (1142 UTC 27 May 2017)
found at http://www.aviationweather.gov/adds/tafs/
 
KBOS 271120Z 2712/2818 33005KT P6SM SCT025 BKN035 
     FM271500 07004KT P6SM SCT025 BKN040 
     FM272100 11010KT P6SM BKN040 
     FM280400 12008KT 5SM -DZ BKN025 
     FM281200 15004KT P6SM BKN035
       
KLGA 270851Z 2709/2806 30010KT P6SM FEW250 
     FM271400 33006KT P6SM SCT250 
     FM271500 33006KT P6SM BKN040 
     FM271700 30006KT P6SM BKN045 
     FM272000 20008KT P6SM BKN045 
     FM272200 17008KT P6SM BKN045 
     FM280300 14004KT P6SM BKN045
       
KEWR 270851Z 2709/2812 25004KT P6SM FEW045 
     FM271100 30006KT P6SM FEW045 
     FM271400 31006KT P6SM BKN045 
     FM271700 28006KT P6SM BKN045 
     FM271900 23007KT P6SM BKN050 
     FM272100 15006KT P6SM BKN045 
     FM280300 VRB03KT P6SM BKN200 
     FM281000 VRB03KT P6SM BKN025
       
KJFK 270851Z 2709/2812 30006KT P6SM FEW045 
     FM271500 29006KT P6SM BKN040 
     FM271700 24007KT P6SM BKN045 
     FM271900 19008KT P6SM BKN045 
     FM272100 15009KT P6SM BKN045 
     FM280200 16005KT P6SM BKN090 
     FM280800 12004KT P6SM BKN030 
     FM281000 11005KT P6SM BKN015
       
KPHL 271128Z 2712/2818 28006KT P6SM SCT045 
     FM271500 25006KT P6SM BKN050 
     FM272100 20006KT P6SM BKN050 
     FM280200 18004KT P6SM SCT250 
     FM280900 08004KT P6SM SCT250 
     FM281600 12008KT P6SM BKN035
       
KIAD 271132Z 2712/2818 VRB03KT P6SM BKN110 
     FM271400 18004KT 4SM -SHRA BKN050 
     FM271800 15005KT P6SM VCTS BKN050CB 
     FM272200 12004KT P6SM OVC040 
     FM280400 VRB03KT P6SM BKN015 
     FM280600 00000KT P6SM BKN008 
     FM281200 VRB03KT P6SM BKN025 
     FM281400 10004KT P6SM BKN035
       
KBWI 271132Z 2712/2818 VRB03KT P6SM BKN040 
     FM271500 07004KT 4SM -SHRA BKN040 
     FM271900 08004KT P6SM BKN050 
     FM280300 04005KT P6SM BKN025 
     FM280500 04004KT P6SM BKN015 
     FM281200 VRB03KT P6SM BKN030 
     FM281400 09005KT P6SM BKN035
       
KDCA 271132Z 2712/2812 VRB03KT P6SM BKN110 
     FM271500 09004KT 4SM -SHRA BKN050 
     FM271800 08006KT 5SM -TSRA BKN050CB 
     FM272300 05005KT P6SM BKN060 
     FM280400 02004KT P6SM BKN025 
     FM280600 VRB03KT P6SM BKN010
       
KCLT 270856Z 2709/2806 20004KT P6SM FEW080 SCT250 
     FM271600 23007KT P6SM SCT060 BKN250 
     FM272200 23008KT P6SM BKN060 
     FM280000 23004KT P6SM BKN060 
     PROB30 2800/2806 4SM -TSRA OVC040CB
       
KATL 271125Z 2712/2818 24007KT P6SM FEW060 BKN200 
     FM271500 24009G16KT P6SM SCT050 BKN200 
     FM272200 25010G18KT P6SM BKN050 
     FM280100 25006KT P6SM VCSH BKN040 
     FM280300 24005KT P6SM SCT040 BKN150 
     FM281000 25006KT P6SM BKN012 
     FM281400 25010KT P6SM SCT025 
     FM281500 25011KT P6SM SCT035
       
KMCO 271137Z 2712/2812 VRB03KT P6SM SKC 
     FM271600 24005KT P6SM FEW040 
     FM280000 14007KT P6SM SKC 
     FM280300 22003KT P6SM SKC
       
KTPA 271122Z 2712/2812 VRB04KT P6SM SKC 
     FM271700 27010KT P6SM SKC 
     FM280100 28005KT P6SM FEW250
       
KFLL 271139Z 2712/2812 VRB03KT P6SM SCT250 
     FM271600 13010KT P6SM FEW040 SCT250 
     FM280000 VRB04KT P6SM SKC
       
KMIA 271139Z 2712/2812 VRB05KT P6SM SCT250 
     FM271800 13009KT P6SM SCT040 SCT250 
     FM280000 VRB03KT P6SM SKC
       
KDTW 271120Z 2712/2818 06004KT P6SM SCT060 BKN110 
     FM271600 07005KT P6SM SCT025 
     FM271800 08005KT P6SM BKN040 
     FM280000 13004KT P6SM SCT040 
     FM281500 14009KT P6SM BKN025
       
KMSP 271130Z 2712/2818 25003KT P6SM SCT250 
     FM271500 26008KT P6SM OVC100 
     FM280100 22005KT P6SM SCT200 
     FM281000 23005KT P6SM BKN080 
     FM281500 30011G18KT P6SM SCT050
       
KORD 270954Z 2710/2812 03005KT 6SM BR SCT006 BKN025 
     FM271400 08006KT P6SM SCT020 SCT150 
     FM271900 08010KT P6SM FEW040 SCT250 
     FM280200 10005KT P6SM SCT080 BKN200 
     FM280800 08005KT 6SM SHRA OVC030 
     PROB30 2809/2811 4SM TSRA OVC015CB
       
KMDW 271037Z 2711/2806 02004KT P6SM SCT006 BKN025 
     FM271430 08006KT P6SM SCT150 
     FM271900 08010KT P6SM FEW040 SCT250 
     FM280200 10005KT P6SM SCT080 BKN200
       
KMEM 271140Z 2712/2812 22010G16KT P6SM VCTS SCT007 OVC015CB 
     TEMPO 2712/2715 BKN007CB 
     FM271700 22013G20KT P6SM BKN030 
     FM272000 21013G20KT P6SM BKN040 
     FM280000 21010KT P6SM BKN050 
     FM280500 20010KT P6SM VCTS BKN050CB 
     TEMPO 2806/2808 32020G35KT 1SM +TSRA OVC020CB
       
KDFW 271137Z 2712/2818 17013KT P6SM BKN016 
     TEMPO 2712/2713 BKN020 
     FM271300 18014KT P6SM BKN025 
     FM271700 19016KT P6SM BKN035 
     FM271800 19017KT P6SM FEW045 BKN250 
     FM280800 23010KT 6SM -SHRA VCTS BKN050CB
       
KIAH 271140Z 2712/2818 18010KT 5SM BR BKN015 OVC020 
     FM271300 19012KT P6SM BKN018 
     FM271500 18013G18KT P6SM SCT015 BKN025 
     FM271700 17014G23KT P6SM BKN035 
     FM280300 17010KT P6SM BKN015 OVC030 
     FM280700 18005KT P6SM OVC014 
     FM281500 18009KT P6SM VCSH BKN025 OVC250
       
KDEN 271120Z 2712/2818 28006KT P6SM SCT015 OVC060 
     TEMPO 2712/2715 BKN015 
     FM271500 01012KT P6SM VCSH SCT025 BKN060 
     FM271700 01012KT P6SM VCTS BKN030CB OVC050 
     TEMPO 2718/2722 5SM SHRA BKN020 
     FM272200 34010KT P6SM VCSH SCT030 BKN060 
     PROB30 2722/2724 -SHRA BKN030 
     FM280100 32007KT P6SM BKN060 
     FM280500 24006KT P6SM FEW060 SCT120 
     FM281500 32007KT P6SM FEW120
       
KSLC 271120Z 2712/2818 26006KT P6SM SKC 
     FM271400 33008KT P6SM FEW090 
     FM280400 15004KT P6SM SKC
       
KSEA 271122Z 2712/2818 VRB03KT P6SM SKC 
     FM271900 31006KT P6SM SKC 
     FM280300 02005KT P6SM SKC
       
KSFO 271134Z 2712/2818 25006KT P6SM SCT014 
     TEMPO 2714/2717 BKN014 
     FM271700 26006KT P6SM FEW018 
     FM272200 27016KT P6SM FEW020 
     FM280300 27012KT P6SM SCT018 
     FM280600 26009KT P6SM BKN016 
     FM280900 28006KT P6SM OVC014 
     FM281600 28006KT P6SM SCT017
       
KLAX 271121Z 2712/2818 VRB03KT P6SM FEW025 BKN035 
     FM271700 24007KT P6SM SCT040 
     FM272100 26014KT P6SM FEW040 
     FM280300 24008KT P6SM SKC 
     FM280600 24006KT P6SM OVC015 
     FM281700 24008KT P6SM SCT015
       
KSAN 271120Z 2712/2818 VRB05KT P6SM FEW020 BKN035 
     FM271900 29011KT P6SM SCT035 
     FM280100 31006KT P6SM SCT025 
     FM280500 VRB04KT P6SM OVC020 
     FM281700 VRB04KT P6SM SCT022
       
KLAS 271137Z 2712/2812 VRB06KT P6SM SKC 
     FM271600 08008KT P6SM SKC 
     FM280400 VRB06KT P6SM SKC
       
KPHX 271124Z 2712/2812 11006KT P6SM SKC 
     FM272000 26007KT P6SM SKC 
     FM280800 12006KT P6SM SKC
       
KSDF 271121Z 2712/2818 23007KT P6SM SCT015 BKN035 
     TEMPO 2712/2716 BKN015 
     FM272000 24007KT P6SM VCTS SCT040CB BKN060 
     FM280000 VRB05KT P6SM SCT030 BKN250 
     PROB30 2805/2810 VRB20G35KT 3SM TSRA BKN025CB
       
KIND 271120Z 2712/2818 28004KT P6SM BKN015 
     FM271600 30004KT P6SM BKN035 
     FM280000 06004KT P6SM BKN110 
     FM280700 14005KT P6SM SHRA VCTS BKN025CB 
     FM281100 18007KT P6SM BKN020